Decoded Metar for KRUG ( in ) (IATA:) | Meteo·Mobile Aviation Weather
aviador You're here:

KRUG Decoded Metar

in
Report Time2018-10-23 22:35:00
UTC Time2018-10-23 22:51:14
Flight Rules vfr VFR
Wind150° at 10 kt
W.Decomp.*RWY 12: 8.7 kt HW 5.0 kt RCW
W.Rank150° ranks 6
Current wind is above 150° avg. (9.2)
Visibility9999 m
Phenomena:N/A
Clouds:N/A
Expected CloudBase > 4,400 ft AGL from Temp-Dew spread
CeilingNone
Temp08°C
Dew Point-3°C (46% RH)
AAT2.0°C
QNH1024 hPa
Raw Report
KRUG 232235Z AUTO 15010KT 10SM CLR 08/M03 A3025 RMK AO2=

Extra information for KRUG:More info

Social comments